createdAt,value
2023-05-08T00:00:29.317Z,12.25
2023-05-08T00:02:56.581Z,12.73
2023-05-08T00:05:23.814Z,12.98
2023-05-08T00:07:52.220Z,11.38
2023-05-08T00:10:19.242Z,12.90
2023-05-08T00:12:46.246Z,13.27
2023-05-08T00:15:13.365Z,14.13
2023-05-08T00:17:40.314Z,12.30
2023-05-08T00:20:08.813Z,12.80
2023-05-08T00:22:36.315Z,11.90
2023-05-08T00:25:05.470Z,11.23
2023-05-08T00:27:33.142Z,14.07
2023-05-08T00:30:00.441Z,11.65
2023-05-08T00:32:27.681Z,11.93
2023-05-08T00:34:54.742Z,11.90
2023-05-08T00:37:22.038Z,12.13
2023-05-08T00:39:49.113Z,15.07
2023-05-08T00:42:16.173Z,12.43
2023-05-08T00:44:43.313Z,13.25
2023-05-08T00:47:10.466Z,13.70
2023-05-08T00:49:38.420Z,13.18
2023-05-08T00:52:09.442Z,14.88
2023-05-08T00:54:38.262Z,13.18
2023-05-08T00:57:07.949Z,12.60
2023-05-08T00:59:37.444Z,13.65
2023-05-08T01:02:05.245Z,13.73
2023-05-08T01:04:34.822Z,13.43
2023-05-08T01:07:03.584Z,13.75
2023-05-08T01:09:30.683Z,13.85
2023-05-08T01:12:24.146Z,13.80
2023-05-08T01:15:17.564Z,15.27
2023-05-08T01:18:16.565Z,13.95
2023-05-08T01:21:01.177Z,17.33
2023-05-08T01:24:05.442Z,13.27
2023-05-08T01:27:18.956Z,16.08
2023-05-08T01:30:11.530Z,16.15
2023-05-08T01:33:24.904Z,15.13
2023-05-08T01:36:00.741Z,12.68
2023-05-08T01:38:40.072Z,12.75
2023-05-08T01:41:17.153Z,11.50
2023-05-08T01:44:08.380Z,14.55
2023-05-08T01:46:35.698Z,12.82
2023-05-08T01:49:14.149Z,13.80
2023-05-08T01:51:48.839Z,13.05
2023-05-08T01:54:24.234Z,15.02
2023-05-08T01:56:56.117Z,14.82
2023-05-08T01:59:26.334Z,16.88
2023-05-08T02:01:58.112Z,15.30
2023-05-08T02:04:27.412Z,14.53
2023-05-08T02:06:57.872Z,14.93
2023-05-08T02:09:29.427Z,14.60
2023-05-08T02:12:00.670Z,19.15
2023-05-08T02:14:29.643Z,14.07
2023-05-08T02:16:59.263Z,14.70
2023-05-08T02:19:29.345Z,13.02
2023-05-08T02:21:59.635Z,12.98
2023-05-08T02:24:27.232Z,13.70
2023-05-08T02:26:56.080Z,16.05
2023-05-08T02:29:24.649Z,14.38
2023-05-08T02:31:56.091Z,14.15
2023-05-08T02:34:25.648Z,14.88
2023-05-08T02:36:54.909Z,19.90
2023-05-08T02:39:26.766Z,13.02
2023-05-08T02:41:53.953Z,17.37
2023-05-08T02:44:22.167Z,16.80
2023-05-08T02:47:16.207Z,13.13
2023-05-08T02:49:56.888Z,16.25
2023-05-08T02:52:47.406Z,15.45
2023-05-08T02:55:40.489Z,15.55
2023-05-08T02:58:35.722Z,19.08
2023-05-08T03:01:19.368Z,15.25
2023-05-08T03:04:08.860Z,13.63
2023-05-08T03:06:48.459Z,14.80
2023-05-08T03:09:26.755Z,17.95
2023-05-08T03:12:06.575Z,16.85
2023-05-08T03:14:44.442Z,15.15
2023-05-08T03:17:19.056Z,14.45
2023-05-08T03:19:55.117Z,16.80
2023-05-08T03:22:24.019Z,15.10
2023-05-08T03:24:54.691Z,18.98
2023-05-08T03:27:23.843Z,16.52
2023-05-08T03:29:52.909Z,16.20
2023-05-08T03:32:22.131Z,18.15
2023-05-08T03:34:50.779Z,16.27
2023-05-08T03:37:18.663Z,23.20
2023-05-08T03:39:45.934Z,20.10
2023-05-08T03:42:21.383Z,19.40
2023-05-08T03:45:52.718Z,18.45
2023-05-08T03:48:22.666Z,19.33
2023-05-08T03:50:50.968Z,16.13
2023-05-08T03:53:18.353Z,16.50
2023-05-08T03:55:45.924Z,18.70
2023-05-08T03:58:48.802Z,16.98
2023-05-08T04:04:08.459Z,20.50
2023-05-08T04:06:51.503Z,18.17
2023-05-08T04:09:37.301Z,20.35
2023-05-08T04:12:23.727Z,16.95
2023-05-08T04:15:07.606Z,15.52
2023-05-08T04:17:50.878Z,17.10
2023-05-08T04:20:27.667Z,16.73
2023-05-08T04:22:57.117Z,17.65
2023-05-08T04:25:26.356Z,17.08
2023-05-08T04:27:56.195Z,16.05
2023-05-08T04:30:24.424Z,20.85
2023-05-08T04:32:52.438Z,17.38
2023-05-08T04:35:20.086Z,15.20
2023-05-08T04:37:48.787Z,14.82
2023-05-08T04:40:17.257Z,17.85
2023-05-08T04:42:47.791Z,16.92
2023-05-08T04:45:17.754Z,19.42
2023-05-08T04:47:45.040Z,15.95
2023-05-08T04:50:12.339Z,16.40
2023-05-08T04:52:39.535Z,14.98
2023-05-08T04:55:07.935Z,16.73
2023-05-08T04:57:37.211Z,13.50
2023-05-08T05:00:07.972Z,13.60
2023-05-08T05:02:39.307Z,14.00
2023-05-08T05:05:07.764Z,11.25
2023-05-08T05:07:34.923Z,12.60
2023-05-08T05:10:02.953Z,16.50
2023-05-08T05:12:31.893Z,11.45
2023-05-08T05:14:59.100Z,12.40
2023-05-08T05:17:31.415Z,11.45
2023-05-08T05:19:59.860Z,13.27
2023-05-08T05:22:28.723Z,12.77
2023-05-08T05:24:56.448Z,12.32
2023-05-08T05:27:24.658Z,13.85
2023-05-08T05:29:52.904Z,11.88
2023-05-08T05:32:20.930Z,11.77
2023-05-08T05:34:48.413Z,11.35
2023-05-08T05:37:15.653Z,13.30
2023-05-08T05:39:42.758Z,15.23
2023-05-08T05:42:09.771Z,10.85
2023-05-08T05:44:37.545Z,10.40
2023-05-08T05:47:10.207Z,9.70
2023-05-08T05:49:39.722Z,10.10
2023-05-08T05:52:07.071Z,12.07
2023-05-08T05:54:34.582Z,8.95
2023-05-08T05:57:01.741Z,9.68
2023-05-08T05:59:29.020Z,8.35
2023-05-08T06:01:56.389Z,10.18
2023-05-08T06:04:23.613Z,10.10
2023-05-08T06:06:50.809Z,11.15
2023-05-08T06:09:18.096Z,13.88
2023-05-08T06:11:45.112Z,10.35
2023-05-08T06:14:12.543Z,10.10
2023-05-08T06:16:40.105Z,10.02
2023-05-08T06:19:08.055Z,8.45
2023-05-08T06:21:35.028Z,6.78
2023-05-08T06:24:03.190Z,8.70
2023-05-08T06:26:30.356Z,8.90
2023-05-08T06:28:57.422Z,9.85
2023-05-08T06:31:24.593Z,11.18
2023-05-08T06:33:51.598Z,6.90
2023-05-08T06:36:18.947Z,9.07
2023-05-08T06:38:46.523Z,8.27
2023-05-08T06:41:15.290Z,8.70
2023-05-08T06:43:42.512Z,8.30
2023-05-08T06:46:09.667Z,8.48
2023-05-08T06:48:36.681Z,8.38
2023-05-08T06:51:04.509Z,8.57
2023-05-08T06:53:31.623Z,8.60
2023-05-08T06:55:58.812Z,7.15
2023-05-08T06:58:25.940Z,7.65
2023-05-08T07:00:54.522Z,8.93
2023-05-08T07:03:21.586Z,9.88
2023-05-08T07:05:48.853Z,8.02
2023-05-08T07:08:15.971Z,7.57
2023-05-08T07:10:42.944Z,7.85
2023-05-08T07:13:10.025Z,6.68
2023-05-08T07:15:39.033Z,5.75
2023-05-08T07:18:09.927Z,7.50
2023-05-08T07:20:36.939Z,7.07
2023-05-08T07:23:03.978Z,6.47
2023-05-08T07:25:32.122Z,7.35
2023-05-08T07:28:01.122Z,7.22
2023-05-08T07:30:28.679Z,5.88
2023-05-08T07:32:55.796Z,7.15
2023-05-08T07:35:22.973Z,8.85
2023-05-08T07:37:50.044Z,8.40
2023-05-08T07:40:17.342Z,5.97
2023-05-08T07:42:45.191Z,12.73
2023-05-08T07:45:14.288Z,7.55
2023-05-08T07:47:56.114Z,4.40
2023-05-08T07:50:25.966Z,10.43
2023-05-08T07:52:53.101Z,6.18
2023-05-08T07:55:21.620Z,5.60
2023-05-08T07:57:48.808Z,4.60
2023-05-08T08:00:16.737Z,3.40
2023-05-08T08:02:45.022Z,5.43
2023-05-08T08:05:12.742Z,3.95
2023-05-08T08:07:40.639Z,5.22
2023-05-08T08:10:08.608Z,6.18
2023-05-08T08:12:36.042Z,3.45
2023-05-08T08:15:03.547Z,6.55
2023-05-08T08:17:31.226Z,3.28
2023-05-08T08:20:00.798Z,5.45
2023-05-08T08:22:27.841Z,3.50
2023-05-08T08:24:57.862Z,5.47
2023-05-08T08:27:25.906Z,6.25
2023-05-08T08:30:04.456Z,5.15
2023-05-08T08:32:39.708Z,3.33
2023-05-08T08:35:07.182Z,4.20
2023-05-08T08:37:35.047Z,4.65
2023-05-08T08:40:02.683Z,4.25
2023-05-08T08:42:30.514Z,3.80
2023-05-08T08:44:57.572Z,5.72
2023-05-08T08:47:29.978Z,6.15
2023-05-08T08:50:02.925Z,4.15
2023-05-08T08:52:52.221Z,3.47
2023-05-08T08:55:23.381Z,4.03
2023-05-08T08:58:16.206Z,4.68
2023-05-08T09:00:43.610Z,3.60
2023-05-08T09:03:10.921Z,2.83
2023-05-08T09:05:38.830Z,5.60
2023-05-08T09:08:09.926Z,2.83
2023-05-08T09:10:37.274Z,3.70
2023-05-08T09:13:05.714Z,4.53
2023-05-08T09:15:34.196Z,1.52
2023-05-08T09:18:02.741Z,4.03
2023-05-08T09:20:30.555Z,2.70
2023-05-08T09:23:02.076Z,4.55
2023-05-08T09:25:45.659Z,2.73
2023-05-08T09:28:22.078Z,3.22
2023-05-08T09:30:58.253Z,3.17
2023-05-08T09:33:28.024Z,3.33
2023-05-08T09:35:56.753Z,2.65
2023-05-08T09:38:38.259Z,6.65
2023-05-08T09:41:15.804Z,10.80
2023-05-08T09:43:59.738Z,7.57
2023-05-08T09:46:27.636Z,8.13
2023-05-08T09:48:59.142Z,1.67
2023-05-08T09:51:28.621Z,5.80
2023-05-08T09:53:59.029Z,3.42
2023-05-08T09:56:37.302Z,5.82
2023-05-08T09:59:21.822Z,3.28
2023-05-08T10:01:51.103Z,4.53
2023-05-08T10:04:18.272Z,2.95
2023-05-08T10:06:58.777Z,3.83
2023-05-08T10:09:32.841Z,2.65
2023-05-08T10:12:08.239Z,3.08
2023-05-08T10:14:35.309Z,4.60
2023-05-08T10:17:11.402Z,2.60
2023-05-08T10:19:45.003Z,4.57
2023-05-08T10:22:15.625Z,3.28
2023-05-08T10:24:49.758Z,4.88
2023-05-08T10:27:27.939Z,7.38
2023-05-08T10:30:02.102Z,3.22
2023-05-08T10:32:40.717Z,3.92
2023-05-08T10:35:12.265Z,3.00
2023-05-08T10:37:42.417Z,2.67
2023-05-08T10:40:11.603Z,2.83
2023-05-08T10:42:40.030Z,2.50
2023-05-08T10:45:09.534Z,4.20
2023-05-08T10:48:15.505Z,6.28
2023-05-08T10:51:13.142Z,3.53
2023-05-08T10:53:57.517Z,2.97
2023-05-08T10:56:30.948Z,4.75
2023-05-08T10:58:59.242Z,3.20
2023-05-08T11:01:27.076Z,2.30
2023-05-08T11:03:58.000Z,3.53
2023-05-08T11:06:47.141Z,3.40
2023-05-08T11:09:28.844Z,3.33
2023-05-08T11:12:29.329Z,5.37
2023-05-08T11:15:03.309Z,3.30
2023-05-08T11:17:30.692Z,2.63
2023-05-08T11:20:00.237Z,3.08
2023-05-08T11:22:33.145Z,3.17
2023-05-08T11:25:05.592Z,5.00
2023-05-08T11:28:17.028Z,3.13
2023-05-08T11:30:44.756Z,2.35
2023-05-08T11:33:14.893Z,4.78
2023-05-08T11:36:19.205Z,4.28
2023-05-08T11:39:13.126Z,2.72
2023-05-08T11:41:41.052Z,4.53
2023-05-08T11:44:20.767Z,7.65
2023-05-08T11:46:56.123Z,4.63
2023-05-08T11:49:29.540Z,2.13
2023-05-08T11:51:59.880Z,2.53
2023-05-08T11:54:31.615Z,3.60
2023-05-08T11:56:59.688Z,3.35
2023-05-08T11:59:26.997Z,3.35
2023-05-08T12:02:06.829Z,2.03
2023-05-08T12:04:47.580Z,1.93
2023-05-08T12:07:18.697Z,2.05
2023-05-08T12:09:49.234Z,4.65
2023-05-08T12:12:16.263Z,2.05
2023-05-08T12:14:43.572Z,3.75
2023-05-08T12:17:11.962Z,5.30
2023-05-08T12:19:39.382Z,2.78
2023-05-08T12:22:08.895Z,2.00
2023-05-08T12:24:36.168Z,3.50
2023-05-08T12:27:04.292Z,3.38
2023-05-08T12:29:37.241Z,1.92
2023-05-08T12:32:04.786Z,2.50
2023-05-08T12:34:31.794Z,2.42
2023-05-08T12:37:03.883Z,2.33
2023-05-08T12:39:40.245Z,6.32
2023-05-08T12:42:07.207Z,3.05
2023-05-08T12:44:34.276Z,2.60
2023-05-08T12:47:01.799Z,1.92
2023-05-08T12:49:32.976Z,5.10
2023-05-08T12:52:09.427Z,3.45
2023-05-08T12:54:48.518Z,3.58
2023-05-08T12:57:19.192Z,2.55
2023-05-08T12:59:47.243Z,2.30
2023-05-08T13:02:16.977Z,2.95
2023-05-08T13:04:45.184Z,1.98
2023-05-08T13:07:12.550Z,2.35
2023-05-08T13:09:40.443Z,2.38
2023-05-08T13:12:07.721Z,4.53
2023-05-08T13:14:34.772Z,2.80
2023-05-08T13:17:02.063Z,4.13
2023-05-08T13:19:29.171Z,3.00
2023-05-08T13:21:56.166Z,4.88
2023-05-08T13:24:23.548Z,2.53
2023-05-08T13:26:50.586Z,4.25
2023-05-08T13:29:17.921Z,3.28
2023-05-08T13:31:45.110Z,2.88
2023-05-08T13:34:12.424Z,5.95
2023-05-08T13:36:39.567Z,3.78
2023-05-08T13:39:06.620Z,3.65
2023-05-08T13:41:33.767Z,3.10
2023-05-08T13:44:00.936Z,2.78
2023-05-08T13:46:29.370Z,2.13
2023-05-08T13:48:56.709Z,3.20
2023-05-08T13:51:26.875Z,5.97
2023-05-08T13:53:53.916Z,5.78
2023-05-08T13:56:22.374Z,1.83
2023-05-08T13:58:52.296Z,2.22
2023-05-08T14:01:26.836Z,4.97
2023-05-08T14:03:55.713Z,1.60
2023-05-08T14:06:22.996Z,2.92
2023-05-08T14:08:52.731Z,4.53
2023-05-08T14:13:49.547Z,2.25
2023-05-08T14:16:16.644Z,3.58
2023-05-08T14:18:44.218Z,4.88
2023-05-08T14:21:11.413Z,4.22
2023-05-08T14:23:38.993Z,6.22
2023-05-08T14:26:06.053Z,4.07
2023-05-08T14:28:33.371Z,4.60
2023-05-08T14:31:00.613Z,4.97
2023-05-08T14:33:27.610Z,3.47
2023-05-08T14:35:54.846Z,3.10
2023-05-08T14:38:21.978Z,6.47
2023-05-08T14:40:54.361Z,3.63
2023-05-08T14:43:23.219Z,4.20
2023-05-08T14:46:06.830Z,4.10
2023-05-08T14:48:33.947Z,6.78
2023-05-08T14:51:01.489Z,2.92
2023-05-08T14:53:29.288Z,4.55
2023-05-08T14:55:56.639Z,3.78
2023-05-08T14:58:23.839Z,7.05
2023-05-08T15:00:50.996Z,4.78
2023-05-08T15:03:18.679Z,5.25
2023-05-08T15:05:47.227Z,4.10
2023-05-08T15:08:14.600Z,2.88
2023-05-08T15:10:41.597Z,2.97
2023-05-08T15:13:08.772Z,5.72
2023-05-08T15:15:38.502Z,7.13
2023-05-08T15:18:05.692Z,5.63
2023-05-08T15:20:32.810Z,3.88
2023-05-08T15:22:59.940Z,4.75
2023-05-08T15:25:27.006Z,5.60
2023-05-08T15:28:25.932Z,5.68
2023-05-08T15:30:53.074Z,5.75
2023-05-08T15:33:20.085Z,4.40
2023-05-08T15:35:47.367Z,6.70
2023-05-08T15:38:18.391Z,6.13
2023-05-08T15:43:21.513Z,4.63
2023-05-08T15:45:49.063Z,6.27
2023-05-08T15:48:17.137Z,3.63
2023-05-08T15:50:44.505Z,2.90
2023-05-08T15:53:11.846Z,8.05
2023-05-08T15:55:39.157Z,4.65
2023-05-08T15:58:06.371Z,1.90
2023-05-08T16:00:43.972Z,3.83
2023-05-08T16:03:12.376Z,5.68
2023-05-08T16:05:39.684Z,4.47
2023-05-08T16:08:08.357Z,3.90
2023-05-08T16:10:35.637Z,4.30
2023-05-08T16:13:02.892Z,3.92
2023-05-08T16:15:30.019Z,5.95
2023-05-08T16:18:01.049Z,7.78
2023-05-08T16:20:28.534Z,4.22
2023-05-08T16:22:55.978Z,7.25
2023-05-08T16:25:24.247Z,6.53
2023-05-08T16:27:51.763Z,5.55
2023-05-08T16:30:19.170Z,3.20
2023-05-08T16:32:46.421Z,4.65
2023-05-08T16:35:15.699Z,7.13
2023-05-08T16:37:43.716Z,4.07
2023-05-08T16:40:16.074Z,5.82
2023-05-08T16:42:43.214Z,5.72
2023-05-08T16:45:11.453Z,4.63
2023-05-08T16:47:39.093Z,7.20
2023-05-08T16:50:06.891Z,8.10
2023-05-08T16:52:34.348Z,8.15
2023-05-08T16:55:01.592Z,5.03
2023-05-08T16:57:28.747Z,5.18
2023-05-08T16:59:56.104Z,6.70
2023-05-08T17:02:23.392Z,5.43
2023-05-08T17:04:50.882Z,5.32
2023-05-08T17:07:18.299Z,4.03
2023-05-08T17:09:45.816Z,5.97
2023-05-08T17:12:13.332Z,6.07
2023-05-08T17:14:58.434Z,9.68
2023-05-08T17:17:25.707Z,7.60
2023-05-08T17:19:52.687Z,9.10
2023-05-08T17:22:20.606Z,3.60
2023-05-08T17:24:48.114Z,6.15
2023-05-08T17:27:15.201Z,6.85
2023-05-08T17:29:42.455Z,6.45
2023-05-08T17:32:09.648Z,8.73
2023-05-08T17:34:37.096Z,4.32
2023-05-08T17:37:04.615Z,8.82
2023-05-08T17:39:31.663Z,10.25
2023-05-08T17:41:58.720Z,5.78
2023-05-08T17:44:26.004Z,9.02
2023-05-08T17:46:53.129Z,7.80
2023-05-08T17:49:20.262Z,6.03
2023-05-08T17:51:47.418Z,10.18
2023-05-08T17:54:14.560Z,5.60
2023-05-08T17:56:41.890Z,5.93
2023-05-08T17:59:09.003Z,8.25
2023-05-08T18:01:36.104Z,9.02
2023-05-08T18:04:03.402Z,7.80
2023-05-08T18:06:30.624Z,5.95
2023-05-08T18:08:57.573Z,7.85
2023-05-08T18:11:27.221Z,8.38
2023-05-08T18:13:55.052Z,12.35
2023-05-08T18:16:22.835Z,7.20
2023-05-08T18:18:50.244Z,7.75
2023-05-08T18:21:17.743Z,6.90
2023-05-08T18:23:44.826Z,6.43
2023-05-08T18:26:16.259Z,6.47
2023-05-08T18:28:44.822Z,7.87
2023-05-08T18:31:16.873Z,7.78
2023-05-08T18:33:44.213Z,8.15
2023-05-08T18:36:12.965Z,9.23
2023-05-08T18:38:45.171Z,9.27
2023-05-08T18:41:13.478Z,5.78
2023-05-08T18:43:41.684Z,8.00
2023-05-08T18:46:15.094Z,8.52
2023-05-08T18:48:42.737Z,10.20
2023-05-08T18:51:10.691Z,8.60
2023-05-08T18:53:39.565Z,9.30
2023-05-08T18:56:12.786Z,6.53
2023-05-08T18:58:40.648Z,10.20
2023-05-08T19:04:26.386Z,9.20
2023-05-08T19:07:26.217Z,8.50
2023-05-08T19:10:23.344Z,6.78
2023-05-08T19:12:56.132Z,12.60
2023-05-08T19:15:47.707Z,9.70
2023-05-08T19:18:30.906Z,10.43
2023-05-08T19:20:58.472Z,9.25
2023-05-08T19:23:25.832Z,9.90
2023-05-08T19:25:53.210Z,13.52
2023-05-08T19:28:20.803Z,9.25
2023-05-08T19:30:48.209Z,9.55
2023-05-08T19:33:15.264Z,10.10
2023-05-08T19:35:43.209Z,9.32
2023-05-08T19:38:10.379Z,10.80
2023-05-08T19:40:48.406Z,8.65
2023-05-08T19:43:26.514Z,8.57
2023-05-08T19:45:55.072Z,18.48
2023-05-08T19:48:22.559Z,12.40
2023-05-08T19:50:55.118Z,9.27
2023-05-08T19:53:23.778Z,12.30
2023-05-08T19:55:50.929Z,10.55
2023-05-08T19:58:18.469Z,13.40
2023-05-08T20:01:03.284Z,13.02
2023-05-08T20:03:30.635Z,10.20
2023-05-08T20:05:58.066Z,9.23
2023-05-08T20:08:33.831Z,13.50
2023-05-08T20:11:06.009Z,9.52
2023-05-08T20:13:44.286Z,12.10
2023-05-08T20:16:15.881Z,12.85
2023-05-08T20:18:43.584Z,10.97
2023-05-08T20:21:39.714Z,8.48
2023-05-08T20:24:11.382Z,9.02
2023-05-08T20:26:42.525Z,15.30
2023-05-08T20:29:10.085Z,12.18
2023-05-08T20:31:37.217Z,14.70
2023-05-08T20:34:04.500Z,9.80
2023-05-08T20:36:32.001Z,13.38
2023-05-08T20:39:02.145Z,10.35
2023-05-08T20:41:29.313Z,7.88
2023-05-08T20:43:56.333Z,11.25
2023-05-08T20:46:23.548Z,11.00
2023-05-08T20:48:51.458Z,12.93
2023-05-08T20:51:21.278Z,11.90
2023-05-08T20:53:51.772Z,9.70
2023-05-08T20:56:21.869Z,11.40
2023-05-08T20:58:49.332Z,12.88
2023-05-08T21:01:25.459Z,13.68
2023-05-08T21:03:53.628Z,13.18
2023-05-08T21:06:25.728Z,9.68
2023-05-08T21:09:01.549Z,11.90
2023-05-08T21:11:29.192Z,12.57
2023-05-08T21:13:57.293Z,11.82
2023-05-08T21:16:26.680Z,10.60
2023-05-08T21:18:56.047Z,10.40
2023-05-08T21:21:25.685Z,10.43
2023-05-08T21:23:53.554Z,11.20
2023-05-08T21:26:23.746Z,9.32
2023-05-08T21:28:52.554Z,10.35
2023-05-08T21:31:20.202Z,10.30
2023-05-08T21:33:47.475Z,11.52
2023-05-08T21:36:14.636Z,10.48
2023-05-08T21:38:41.978Z,8.90
2023-05-08T21:41:13.281Z,13.05
2023-05-08T21:43:49.956Z,9.93
2023-05-08T21:46:17.182Z,14.15
2023-05-08T21:48:44.287Z,11.63
2023-05-08T21:51:12.103Z,17.45
2023-05-08T21:53:39.317Z,9.38
2023-05-08T21:56:06.659Z,11.93
2023-05-08T21:58:52.768Z,11.98
2023-05-08T22:02:17.472Z,9.80
2023-05-08T22:07:43.201Z,15.27
2023-05-08T22:10:12.877Z,11.23
2023-05-08T22:12:40.341Z,10.32
2023-05-08T22:15:18.002Z,12.93
2023-05-08T22:17:50.744Z,9.63
2023-05-08T22:20:18.221Z,8.93
2023-05-08T22:22:45.791Z,7.10
2023-05-08T22:25:13.198Z,9.20
2023-05-08T22:27:40.788Z,7.50
2023-05-08T22:30:08.503Z,8.15
2023-05-08T22:33:01.478Z,8.63
2023-05-08T22:37:57.848Z,11.15
2023-05-08T22:40:25.525Z,9.95
2023-05-08T22:42:58.766Z,7.93
2023-05-08T22:45:30.096Z,12.20
2023-05-08T22:48:05.996Z,8.15
2023-05-08T22:50:35.041Z,9.48
2023-05-08T22:53:08.386Z,9.95
2023-05-08T22:55:53.054Z,8.30
2023-05-08T22:58:27.329Z,8.13
2023-05-08T23:01:07.680Z,10.20
2023-05-08T23:03:36.857Z,8.75
2023-05-08T23:06:04.200Z,9.43
2023-05-08T23:08:31.323Z,11.90
2023-05-08T23:10:58.334Z,10.93
2023-05-08T23:13:25.468Z,8.30
2023-05-08T23:15:52.767Z,11.48
2023-05-08T23:18:19.775Z,8.07
2023-05-08T23:20:46.846Z,9.70
2023-05-08T23:23:13.989Z,8.27
2023-05-08T23:25:41.269Z,10.13
2023-05-08T23:28:08.617Z,7.82
2023-05-08T23:30:35.888Z,10.63
2023-05-08T23:33:02.941Z,12.68
2023-05-08T23:35:30.258Z,9.30
2023-05-08T23:37:57.420Z,8.52
2023-05-08T23:40:24.547Z,7.57
2023-05-08T23:42:52.280Z,6.45
2023-05-08T23:45:19.485Z,11.23
2023-05-08T23:47:46.635Z,11.55
2023-05-08T23:50:16.741Z,8.57
2023-05-08T23:52:44.005Z,7.53
2023-05-08T23:55:11.269Z,9.77
2023-05-08T23:57:38.630Z,6.70
